Relevés horaires Bierset (Belgique)


Relevés horaires à Bierset - Samedi 30 Mai 2020
Heure UTC1 Température [°C] Vent [km/h] Hum. [%] Pres.4 [hPa] Visi. [Km] Nébu. [octa] Préc.5 [mm] Cond.
2m. Res. Ros. Dir.2 Vit. Moy. Raf.3
23:00 15.8 15.8 3.0 ENE 7.4 9.3 13.0 42 1022(0.8/3h) 30 0/8 -- --
22:00 16.8 16.8 3.4 ENE 7.4 11.1 20.4 41 1021.9(1.2/3h) 30 0/8 -- --
21:00 17.8 17.7 3.5 ENE 13.0 13.0 22.2 39 1021.6(1.0/3h) 30 0/8 -- --
20:00 18.8 18.8 3.3 ENE 11.1 11.1 16.7 36 1020.9(0.4/3h) 30 0/8 -- --
19:00 19.9 19.9 1.6 NE 9.3 11.1 16.7 30 1020.4(-0.4/3h) 30 1/8 -- --
18:00 21.0 21.0 3.8 NE 11.1 14.8 22.2 32 1020.3(-0.7/3h) 30 1/8 0/12h
--
17:00 21.9 21.9 3.9 NE 13.0 13.0 22.2 31 1020.3(-0.9/3h) 30 1/8 -- --
16:00 22.7 22.7 3.5 NE 13.0 13.0 18.5 28 1020.6(-1.0/3h) 30 1/8 -- --
15:00 22.6 22.6 3.2 NE 11.1 13.0 20.4 28 1020.9(-1.1/3h) 30 1/8 -- --
14:00 22.9 22.9 3.0 NNE 9.3 13.0 20.4 27 1021.1(-1.2/3h) 30 1/8 -- --
13:00 22.4 22.4 2.8 NE 7.4 11.1 20.4 28 1021.7(-1.2/3h) 30 1/8 -- --
12:00 22.7 22.7 2.1 ENE 11.1 13.0 22.2 26 1022(-1.0/3h) 30 1/8 0/6h
--
11:00 21.3 21.3 1.3 E 11.1 11.1 20.4 26 1022.5(-0.9/3h) 30 1/8 -- --
10:00 20.9 20.9 2.0 SE 9.3 9.3 22.2 29 1023(-0.6/3h) 30 1/8 -- --
09:00 20.2 20.2 2.1 ESE 7.4 9.3 22.2 30 1023.3(0.2/3h) 30 0/8 -- --
08:00 18.6 18.6 3.0 E 7.4 7.4 18.5 35 1023.6(0.3/3h) 30 0/8 -- --
07:00 16.8 16.8 3.5 E 5.6 5.6 14.8 41 1023.9(0.6/3h) 30 0/8 -- --
06:00 14.7 14.7 2.7 E 5.6 5.6 22.2 44 1023.8(0.3/3h) 30 0/8 0/12h
--
05:00 13.1 13.1 3.3 E 3.7 5.6 20.4 51 1023.7(0.0/3h) 30 0/8 -- --
04:00 12.2 12.2 3.2 SE 3.7 5.6 22.2 54 1023.6(0.2/3h) 30 0/8 -- --
03:00 13.0 13.0 2.7 ESE 3.7 5.6 22.2 50 1023.7(0.1/3h) 30 0/8 -- --
02:00 13.4 13.4 2.5 E 3.7 3.7 5.6 48 1023.7(0.1/3h) 30 0/8 -- --
01:00 13.7 13.7 1.8 ESE 3.7 5.6 7.4 44 1023.7(0.1/3h) 30 1/8 -- --

1 Coordinated Universal Time. Actuellement il est 08:00 locale et 06:00 UTC.

2 Le vent souffle depuis la direction indiquée vers la direction oposée.

3 Les rafales max. sont disponible 40 min après l'heure du relevé.

4 Pour les stations d'altitude (plus de 600m) le géopotentiel du niveau le plus proche de la pression obligatoire est indiqué.

5 Les stations disposant d'un diffuseur peuvent indiquer "trace". Cela signifie que des précipitations ont touchés le sol mais que la quantité est inférieure à 0.1 mm.

Récapitulatif de la journée
Température [°C] Vent [km/h] Ensoleillement4 [h] Precipitations totale5 [mm] Pression [Hpa]
Min1 Max.2 Moy.3 Max. Min Max.
12.2 23.4 9.6 22.2 0 h 0 min 0 1020.3 1023.9

1 Température minimale relevée entre 18:00 UTC la veille et 18:00 UTC le jour donné.

2 Température maximale relevée entre 06:00 UTC le jour donné et 06:00 UTC le lendemain.

3 Vent moyen de la journée basé sur les relevés horaires.

4 Ensoleillement en heures relevé entre 06:00 UTC la veille et 06:00 UTC le jour donné.

5 Précipitations totales tombées entre 06:00 UTC la jour donné et 06:00 UTC le lendemain.

Graphiques horaires